sensor_id;sensor_type;location;lat;lon;timestamp;pressure;altitude;pressure_sealevel;temperature;humidity
76404;BME280;65232;48.358;2.122;2023-07-02T00:00:17;100611.03;;;16.39;69.43
76404;BME280;65232;48.358;2.122;2023-07-02T00:00:46;100613.91;;;16.46;69.22
76404;BME280;65232;48.358;2.122;2023-07-02T00:01:11;100607.47;;;16.39;69.40
76404;BME280;65232;48.358;2.122;2023-07-02T00:01:37;100611.84;;;16.48;69.60
76404;BME280;65232;48.358;2.122;2023-07-02T00:02:02;100613.91;;;16.46;69.46
76404;BME280;65232;48.358;2.122;2023-07-02T00:02:28;100609.84;;;16.42;69.63
76404;BME280;65232;48.358;2.122;2023-07-02T00:02:53;100606.31;;;16.41;69.32
76404;BME280;65232;48.358;2.122;2023-07-02T00:03:19;100605.63;;;16.39;69.83
76404;BME280;65232;48.358;2.122;2023-07-02T00:03:47;100611.53;;;16.27;70.29
76404;BME280;65232;48.358;2.122;2023-07-02T00:04:13;100614.91;;;16.37;69.89
76404;BME280;65232;48.358;2.122;2023-07-02T00:04:41;100614.22;;;16.51;69.34
76404;BME280;65232;48.358;2.122;2023-07-02T00:05:07;100617.25;;;16.48;69.26
76404;BME280;65232;48.358;2.122;2023-07-02T00:05:33;100615.75;;;16.45;69.13
76404;BME280;65232;48.358;2.122;2023-07-02T00:05:58;100622.00;;;16.46;69.33
76404;BME280;65232;48.358;2.122;2023-07-02T00:06:24;100611.69;;;16.41;69.40
76404;BME280;65232;48.358;2.122;2023-07-02T00:06:51;100613.38;;;16.42;69.64
76404;BME280;65232;48.358;2.122;2023-07-02T00:07:17;100622.00;;;16.38;69.88
76404;BME280;65232;48.358;2.122;2023-07-02T00:07:43;100616.59;;;16.30;69.93
76404;BME280;65232;48.358;2.122;2023-07-02T00:08:08;100616.91;;;16.35;69.82
76404;BME280;65232;48.358;2.122;2023-07-02T00:08:34;100618.47;;;16.45;69.66
76404;BME280;65232;48.358;2.122;2023-07-02T00:08:59;100618.94;;;16.49;69.21
76404;BME280;65232;48.358;2.122;2023-07-02T00:09:24;100610.19;;;16.47;69.58
76404;BME280;65232;48.358;2.122;2023-07-02T00:09:50;100609.84;;;16.42;69.54
76404;BME280;65232;48.358;2.122;2023-07-02T00:10:15;100612.88;;;16.39;69.33
76404;BME280;65232;48.358;2.122;2023-07-02T00:10:41;100609.81;;;16.50;69.19
76404;BME280;65232;48.358;2.122;2023-07-02T00:11:07;100613.22;;;16.52;68.79
76404;BME280;65232;48.358;2.122;2023-07-02T00:11:32;100609.69;;;16.43;69.13
76404;BME280;65232;48.358;2.122;2023-07-02T00:11:58;100611.00;;;16.47;68.81
76404;BME280;65232;48.358;2.122;2023-07-02T00:12:23;100612.53;;;16.42;69.16
76404;BME280;65232;48.358;2.122;2023-07-02T00:12:49;100614.56;;;16.40;69.60
76404;BME280;65232;48.358;2.122;2023-07-02T00:13:15;100612.88;;;16.39;69.35
76404;BME280;65232;48.358;2.122;2023-07-02T00:13:40;100613.91;;;16.46;69.08
76404;BME280;65232;48.358;2.122;2023-07-02T00:14:06;100608.50;;;16.30;69.60
76404;BME280;65232;48.358;2.122;2023-07-02T00:14:32;100610.03;;;16.32;69.92
76404;BME280;65232;48.358;2.122;2023-07-02T00:14:58;100610.84;;;16.41;69.54
76404;BME280;65232;48.358;2.122;2023-07-02T00:15:23;100609.50;;;16.37;69.50
76404;BME280;65232;48.358;2.122;2023-07-02T00:15:49;100611.53;;;16.43;69.40
76404;BME280;65232;48.358;2.122;2023-07-02T00:16:14;100617.25;;;16.48;69.13
76404;BME280;65232;48.358;2.122;2023-07-02T00:16:44;100611.69;;;16.41;69.22
76404;BME280;65232;48.358;2.122;2023-07-02T00:17:10;100611.53;;;16.43;69.42
76404;BME280;65232;48.358;2.122;2023-07-02T00:17:37;100605.13;;;16.44;69.37
76404;BME280;65232;48.358;2.122;2023-07-02T00:18:06;100611.19;;;16.46;69.07
76404;BME280;65232;48.358;2.122;2023-07-02T00:18:31;100603.94;;;16.46;69.18
76404;BME280;65232;48.358;2.122;2023-07-02T00:18:59;100611.84;;;16.48;69.01
76404;BME280;65232;48.358;2.122;2023-07-02T00:19:25;100609.84;;;16.42;69.54
76404;BME280;65232;48.358;2.122;2023-07-02T00:19:51;100609.50;;;16.37;69.78
76404;BME280;65232;48.358;2.122;2023-07-02T00:20:17;100610.50;;;16.36;69.62
76404;BME280;65232;48.358;2.122;2023-07-02T00:20:43;100607.13;;;16.34;69.69
76404;BME280;65232;48.358;2.122;2023-07-02T00:21:08;100609.00;;;16.41;69.21
76404;BME280;65232;48.358;2.122;2023-07-02T00:21:38;100601.41;;;16.37;69.77
76404;BME280;65232;48.358;2.122;2023-07-02T00:22:05;100608.47;;;16.38;69.50
76404;BME280;65232;48.358;2.122;2023-07-02T00:22:30;100610.84;;;16.41;69.53
76404;BME280;65232;48.358;2.122;2023-07-02T00:22:56;100610.34;;;16.29;69.61
76404;BME280;65232;48.358;2.122;2023-07-02T00:23:22;100615.41;;;16.24;70.19
76404;BME280;65232;48.358;2.122;2023-07-02T00:23:47;100603.94;;;16.14;70.70
76404;BME280;65232;48.358;2.122;2023-07-02T00:24:13;100608.66;;;16.20;70.41
76404;BME280;65232;48.358;2.122;2023-07-02T00:24:38;100606.63;;;16.14;70.76
76404;BME280;65232;48.358;2.122;2023-07-02T00:25:04;100603.41;;;16.18;70.48
76404;BME280;65232;48.358;2.122;2023-07-02T00:25:30;100610.34;;;16.21;70.25
76404;BME280;65232;48.358;2.122;2023-07-02T00:25:58;100606.78;;;16.20;70.04
76404;BME280;65232;48.358;2.122;2023-07-02T00:26:24;100605.63;;;16.15;70.48
76404;BME280;65232;48.358;2.122;2023-07-02T00:26:50;100607.16;;;16.17;70.79
76404;BME280;65232;48.358;2.122;2023-07-02T00:27:15;100611.50;;;16.18;70.60
76404;BME280;65232;48.358;2.122;2023-07-02T00:27:41;100610.16;;;15.98;70.94
76404;BME280;65232;48.358;2.122;2023-07-02T00:28:07;100602.91;;;15.99;71.14
76404;BME280;65232;48.358;2.122;2023-07-02T00:28:32;100606.59;;;15.81;71.73
76404;BME280;65232;48.358;2.122;2023-07-02T00:28:58;100605.09;;;15.95;71.25
76404;BME280;65232;48.358;2.122;2023-07-02T00:29:24;100613.19;;;15.95;71.42
76404;BME280;65232;48.358;2.122;2023-07-02T00:29:49;100605.94;;;15.96;71.39
76404;BME280;65232;48.358;2.122;2023-07-02T00:30:15;100604.56;;;15.83;71.71
76404;BME280;65232;48.358;2.122;2023-07-02T00:30:40;100611.81;;;15.83;71.74
76404;BME280;65232;48.358;2.122;2023-07-02T00:31:06;100616.38;;;15.91;71.42
76404;BME280;65232;48.358;2.122;2023-07-02T00:31:33;100605.75;;;15.89;71.42
76404;BME280;65232;48.358;2.122;2023-07-02T00:31:59;100607.09;;;15.93;71.53
76404;BME280;65232;48.358;2.122;2023-07-02T00:32:25;100613.19;;;15.87;71.66
76404;BME280;65232;48.358;2.122;2023-07-02T00:32:50;100611.34;;;15.88;71.61
76404;BME280;65232;48.358;2.122;2023-07-02T00:33:16;100609.47;;;15.96;71.71
76404;BME280;65232;48.358;2.122;2023-07-02T00:33:41;100605.09;;;16.03;70.87
76404;BME280;65232;48.358;2.122;2023-07-02T00:34:07;100611.00;;;16.07;70.83
76404;BME280;65232;48.358;2.122;2023-07-02T00:34:32;100602.75;;;16.08;71.12
76404;BME280;65232;48.358;2.122;2023-07-02T00:34:58;100606.63;;;15.98;71.11
76404;BME280;65232;48.358;2.122;2023-07-02T00:35:24;100605.25;;;15.94;71.04
76404;BME280;65232;48.358;2.122;2023-07-02T00:35:49;100604.75;;;15.98;71.10
76404;BME280;65232;48.358;2.122;2023-07-02T00:36:15;100601.91;;;16.00;71.37
76404;BME280;65232;48.358;2.122;2023-07-02T00:36:41;100607.63;;;16.05;70.94
76404;BME280;65232;48.358;2.122;2023-07-02T00:37:07;100601.72;;;15.93;71.41
76404;BME280;65232;48.358;2.122;2023-07-02T00:37:32;100603.06;;;15.97;71.25
76404;BME280;65232;48.358;2.122;2023-07-02T00:37:58;100606.25;;;15.93;71.44
76404;BME280;65232;48.358;2.122;2023-07-02T00:38:23;100605.78;;;15.97;71.27
76404;BME280;65232;48.358;2.122;2023-07-02T00:38:49;100601.34;;;15.88;71.30
76404;BME280;65232;48.358;2.122;2023-07-02T00:39:15;100600.03;;;15.92;71.25
76404;BME280;65232;48.358;2.122;2023-07-02T00:39:43;100608.97;;;15.84;71.79
76404;BME280;65232;48.358;2.122;2023-07-02T00:40:08;100600.53;;;15.96;71.33
76404;BME280;65232;48.358;2.122;2023-07-02T00:40:34;100600.34;;;15.89;71.73
76404;BME280;65232;48.358;2.122;2023-07-02T00:40:59;100606.25;;;15.93;71.78
76404;BME280;65232;48.358;2.122;2023-07-02T00:41:25;100607.47;;;15.98;71.33
76404;BME280;65232;48.358;2.122;2023-07-02T00:41:51;100597.69;;;15.97;71.37
76404;BME280;65232;48.358;2.122;2023-07-02T00:42:16;100605.44;;;16.00;71.19
76404;BME280;65232;48.358;2.122;2023-07-02T00:42:42;100604.59;;;16.00;71.40
76404;BME280;65232;48.358;2.122;2023-07-02T00:43:08;100607.47;;;15.98;71.20
76404;BME280;65232;48.358;2.122;2023-07-02T00:43:38;100604.56;;;15.92;71.62
76404;BME280;65232;48.358;2.122;2023-07-02T00:44:08;100603.03;;;15.89;71.77
76404;BME280;65232;48.358;2.122;2023-07-02T00:44:35;100606.75;;;15.88;71.95
76404;BME280;65232;48.358;2.122;2023-07-02T00:45:06;100603.03;;;15.89;71.90
76404;BME280;65232;48.358;2.122;2023-07-02T00:45:32;100608.13;;;15.92;71.63
76404;BME280;65232;48.358;2.122;2023-07-02T00:45:57;100604.56;;;15.83;71.85
76404;BME280;65232;48.358;2.122;2023-07-02T00:46:24;100602.19;;;15.80;72.10
76404;BME280;65232;48.358;2.122;2023-07-02T00:46:51;100603.38;;;15.78;72.46
76404;BME280;65232;48.358;2.122;2023-07-02T00:47:17;100606.75;;;15.80;72.22
76404;BME280;65232;48.358;2.122;2023-07-02T00:47:45;100602.00;;;15.74;72.90
76404;BME280;65232;48.358;2.122;2023-07-02T00:48:10;100607.06;;;15.77;72.51
76404;BME280;65232;48.358;2.122;2023-07-02T00:48:36;100599.81;;;15.77;72.44
76404;BME280;65232;48.358;2.122;2023-07-02T00:49:04;100604.38;;;15.77;72.62
76404;BME280;65232;48.358;2.122;2023-07-02T00:49:29;100598.47;;;15.73;72.51
76404;BME280;65232;48.358;2.122;2023-07-02T00:49:55;100601.88;;;15.83;71.97
76404;BME280;65232;48.358;2.122;2023-07-02T00:50:23;100606.59;;;15.90;72.14
76404;BME280;65232;48.358;2.122;2023-07-02T00:50:50;100601.72;;;15.93;72.37
76404;BME280;65232;48.358;2.122;2023-07-02T00:51:17;100599.50;;;15.88;72.33
76404;BME280;65232;48.358;2.122;2023-07-02T00:51:43;100603.41;;;15.94;72.44
76404;BME280;65232;48.358;2.122;2023-07-02T00:52:09;100602.53;;;15.77;72.63
76404;BME280;65232;48.358;2.122;2023-07-02T00:52:35;100604.38;;;15.77;72.74
76404;BME280;65232;48.358;2.122;2023-07-02T00:53:00;100608.44;;;15.73;72.57
76404;BME280;65232;48.358;2.122;2023-07-02T00:53:26;100606.56;;;15.73;72.76
76404;BME280;65232;48.358;2.122;2023-07-02T00:53:53;100606.91;;;15.78;72.34
76404;BME280;65232;48.358;2.122;2023-07-02T00:54:20;100608.44;;;15.73;72.88
76404;BME280;65232;48.358;2.122;2023-07-02T00:54:45;100600.94;;;15.59;73.45
76404;BME280;65232;48.358;2.122;2023-07-02T00:55:11;100606.31;;;15.50;73.77
76404;BME280;65232;48.358;2.122;2023-07-02T00:55:37;100613.06;;;15.55;73.51
76404;BME280;65232;48.358;2.122;2023-07-02T00:56:02;100609.94;;;15.67;73.09
76404;BME280;65232;48.358;2.122;2023-07-02T00:56:27;100607.19;;;15.59;73.40
76404;BME280;65232;48.358;2.122;2023-07-02T00:56:54;100603.16;;;15.63;72.97
76404;BME280;65232;48.358;2.122;2023-07-02T00:57:20;100605.91;;;15.79;72.38
76404;BME280;65232;48.358;2.122;2023-07-02T00:57:45;100604.50;;;15.59;72.80
76404;BME280;65232;48.358;2.122;2023-07-02T00:58:11;100604.34;;;15.61;72.93
76404;BME280;65232;48.358;2.122;2023-07-02T00:58:43;100609.56;;;15.62;73.32
76404;BME280;65232;48.358;2.122;2023-07-02T00:59:13;100614.13;;;15.62;73.31
76404;BME280;65232;48.358;2.122;2023-07-02T00:59:39;100603.28;;;15.53;73.47
76404;BME280;65232;48.358;2.122;2023-07-02T01:00:04;100608.63;;;15.45;74.13
76404;BME280;65232;48.358;2.122;2023-07-02T01:00:31;100603.00;;;15.31;74.55
76404;BME280;65232;48.358;2.122;2023-07-02T01:00:57;100597.47;;;15.32;74.36
76404;BME280;65232;48.358;2.122;2023-07-02T01:01:25;100607.78;;;15.45;73.52
76404;BME280;65232;48.358;2.122;2023-07-02T01:01:51;100606.63;;;15.47;73.48
76404;BME280;65232;48.358;2.122;2023-07-02T01:02:18;100611.31;;;15.37;73.85
76404;BME280;65232;48.358;2.122;2023-07-02T01:02:53;100609.25;;;15.31;74.35
76404;BME280;65232;48.358;2.122;2023-07-02T01:03:22;100605.44;;;15.42;74.17
76404;BME280;65232;48.358;2.122;2023-07-02T01:04:19;100602.28;;;15.55;73.43
76404;BME280;65232;48.358;2.122;2023-07-02T01:04:47;100602.59;;;15.51;73.50
76404;BME280;65232;48.358;2.122;2023-07-02T01:05:15;100599.13;;;15.67;72.96
76404;BME280;65232;48.358;2.122;2023-07-02T01:05:41;100607.06;;;15.69;72.60
76404;BME280;65232;48.358;2.122;2023-07-02T01:06:07;100606.13;;;15.52;73.22
76404;BME280;65232;48.358;2.122;2023-07-02T01:06:35;100608.16;;;15.50;73.25
76404;BME280;65232;48.358;2.122;2023-07-02T01:07:01;100605.94;;;15.45;73.73
76404;BME280;65232;48.358;2.122;2023-07-02T01:07:26;100606.75;;;15.38;73.75
76404;BME280;65232;48.358;2.122;2023-07-02T01:07:52;100605.06;;;15.37;74.01
76404;BME280;65232;48.358;2.122;2023-07-02T01:08:17;100607.94;;;15.35;73.69
76404;BME280;65232;48.358;2.122;2023-07-02T01:08:44;100615.53;;;15.40;74.05
76404;BME280;65232;48.358;2.122;2023-07-02T01:09:10;100612.00;;;15.47;73.89
76404;BME280;65232;48.358;2.122;2023-07-02T01:09:38;100608.13;;;15.42;74.12
76404;BME280;65232;48.358;2.122;2023-07-02T01:10:06;100609.84;;;15.43;74.31
76404;BME280;65232;48.358;2.122;2023-07-02T01:10:32;100608.63;;;15.45;73.89
76404;BME280;65232;48.358;2.122;2023-07-02T01:11:00;100605.09;;;15.45;73.86
76404;BME280;65232;48.358;2.122;2023-07-02T01:11:35;100604.91;;;15.38;73.88
76404;BME280;65232;48.358;2.122;2023-07-02T01:12:07;100609.31;;;15.39;73.84
76404;BME280;65232;48.358;2.122;2023-07-02T01:12:35;100615.34;;;15.33;74.01
76404;BME280;65232;48.358;2.122;2023-07-02T01:13:08;100610.16;;;15.40;74.14
76404;BME280;65232;48.358;2.122;2023-07-02T01:13:35;100619.03;;;15.32;74.28
76404;BME280;65232;48.358;2.122;2023-07-02T01:14:14;100614.00;;;15.37;73.90
76404;BME280;65232;48.358;2.122;2023-07-02T01:14:47;100612.34;;;15.44;73.81
76404;BME280;65232;48.358;2.122;2023-07-02T01:15:13;100612.63;;;15.33;73.94
76404;BME280;65232;48.358;2.122;2023-07-02T01:15:39;100614.16;;;15.28;73.97
76404;BME280;65232;48.358;2.122;2023-07-02T01:16:05;100606.38;;;15.25;74.38
76404;BME280;65232;48.358;2.122;2023-07-02T01:16:31;100608.41;;;15.31;74.33
76404;BME280;65232;48.358;2.122;2023-07-02T01:16:59;100613.31;;;15.27;74.43
76404;BME280;65232;48.358;2.122;2023-07-02T01:17:26;100614.31;;;15.26;74.42
76404;BME280;65232;48.358;2.122;2023-07-02T01:17:53;100616.84;;;15.28;74.34
76404;BME280;65232;48.358;2.122;2023-07-02T01:18:19;100615.00;;;15.36;74.07
76404;BME280;65232;48.358;2.122;2023-07-02T01:18:45;100613.63;;;15.32;74.31
76404;BME280;65232;48.358;2.122;2023-07-02T01:19:21;100609.31;;;15.47;73.79
76404;BME280;65232;48.358;2.122;2023-07-02T01:19:49;100622.09;;;15.37;73.89
76404;BME280;65232;48.358;2.122;2023-07-02T01:20:19;100614.50;;;15.33;74.37
76404;BME280;65232;48.358;2.122;2023-07-02T01:20:45;100612.63;;;15.25;74.44
76404;BME280;65232;48.358;2.122;2023-07-02T01:21:12;100615.66;;;15.30;74.02
76404;BME280;65232;48.358;2.122;2023-07-02T01:21:38;100620.53;;;15.27;74.13
76404;BME280;65232;48.358;2.122;2023-07-02T01:22:04;100620.19;;;15.30;74.62
76404;BME280;65232;48.358;2.122;2023-07-02T01:22:29;100622.78;;;15.39;74.05
76404;BME280;65232;48.358;2.122;2023-07-02T01:22:57;100621.03;;;15.30;73.94
76404;BME280;65232;48.358;2.122;2023-07-02T01:23:23;100614.19;;;15.44;73.96
76404;BME280;65232;48.358;2.122;2023-07-02T01:23:48;100616.88;;;15.36;74.03
76404;BME280;65232;48.358;2.122;2023-07-02T01:24:15;100620.88;;;15.32;74.15
76404;BME280;65232;48.358;2.122;2023-07-02T01:24:41;100613.47;;;15.34;74.14
76404;BME280;65232;48.358;2.122;2023-07-02T01:25:07;100619.72;;;15.34;74.14
76404;BME280;65232;48.358;2.122;2023-07-02T01:25:35;100616.38;;;15.40;73.79
76404;BME280;65232;48.358;2.122;2023-07-02T01:26:01;100621.44;;;15.43;73.83
76404;BME280;65232;48.358;2.122;2023-07-02T01:26:29;100622.63;;;15.41;73.83
76404;BME280;65232;48.358;2.122;2023-07-02T01:26:55;100619.56;;;15.36;74.07
76404;BME280;65232;48.358;2.122;2023-07-02T01:27:21;100622.09;;;15.37;73.98
76404;BME280;65232;48.358;2.122;2023-07-02T01:27:47;100617.56;;;15.38;73.83
76404;BME280;65232;48.358;2.122;2023-07-02T01:28:12;100622.72;;;15.31;73.97
76404;BME280;65232;48.358;2.122;2023-07-02T01:28:39;100623.75;;;15.30;74.37
76404;BME280;65232;48.358;2.122;2023-07-02T01:29:17;100627.63;;;15.28;74.58
76404;BME280;65232;48.358;2.122;2023-07-02T01:29:43;100626.13;;;15.33;74.47
76404;BME280;65232;48.358;2.122;2023-07-02T01:30:12;100625.94;;;15.27;74.57
76404;BME280;65232;48.358;2.122;2023-07-02T01:30:37;100628.09;;;15.23;74.39
76404;BME280;65232;48.358;2.122;2023-07-02T01:31:04;100628.09;;;15.23;74.52
76404;BME280;65232;48.358;2.122;2023-07-02T01:31:29;100628.41;;;15.20;74.88
76404;BME280;65232;48.358;2.122;2023-07-02T01:31:56;100629.06;;;15.14;75.17
76404;BME280;65232;48.358;2.122;2023-07-02T01:32:22;100630.13;;;15.29;74.67
76404;BME280;65232;48.358;2.122;2023-07-02T01:32:49;100625.41;;;15.23;74.70
76404;BME280;65232;48.358;2.122;2023-07-02T01:33:16;100620.19;;;15.22;74.87
76404;BME280;65232;48.358;2.122;2023-07-02T01:33:43;100633.44;;;15.15;74.83
76404;BME280;65232;48.358;2.122;2023-07-02T01:34:09;100630.44;;;15.18;75.38
76404;BME280;65232;48.358;2.122;2023-07-02T01:34:35;100629.78;;;15.24;74.95
76404;BME280;65232;48.358;2.122;2023-07-02T01:35:00;100627.88;;;15.16;75.23
76404;BME280;65232;48.358;2.122;2023-07-02T01:35:26;100629.75;;;15.16;75.26
76404;BME280;65232;48.358;2.122;2023-07-02T01:35:51;100625.69;;;15.12;75.59
76404;BME280;65232;48.358;2.122;2023-07-02T01:36:17;100632.13;;;15.19;74.87
76404;BME280;65232;48.358;2.122;2023-07-02T01:36:42;100629.44;;;15.19;75.04
76404;BME280;65232;48.358;2.122;2023-07-02T01:37:08;100627.09;;;15.24;75.07
76404;BME280;65232;48.358;2.122;2023-07-02T01:37:34;100633.97;;;15.18;74.94
76404;BME280;65232;48.358;2.122;2023-07-02T01:38:02;100631.50;;;15.25;75.10
76404;BME280;65232;48.358;2.122;2023-07-02T01:38:28;100626.09;;;15.25;74.80
76404;BME280;65232;48.358;2.122;2023-07-02T01:38:53;100624.44;;;15.32;74.44
76404;BME280;65232;48.358;2.122;2023-07-02T01:39:19;100626.50;;;15.38;74.72
76404;BME280;65232;48.358;2.122;2023-07-02T01:39:45;100622.97;;;15.46;74.02
76404;BME280;65232;48.358;2.122;2023-07-02T01:40:10;100626.50;;;15.46;74.10
76404;BME280;65232;48.358;2.122;2023-07-02T01:40:36;100630.19;;;15.37;74.17
76404;BME280;65232;48.358;2.122;2023-07-02T01:41:02;100628.50;;;15.36;74.43
76404;BME280;65232;48.358;2.122;2023-07-02T01:41:28;100634.75;;;15.45;74.17
76404;BME280;65232;48.358;2.122;2023-07-02T01:42:34;100634.81;;;15.19;74.79
76404;BME280;65232;48.358;2.122;2023-07-02T01:43:01;100624.88;;;15.20;75.53
76404;BME280;65232;48.358;2.122;2023-07-02T01:43:27;100627.09;;;15.24;74.87
76404;BME280;65232;48.358;2.122;2023-07-02T01:43:52;100629.47;;;15.27;74.91
76404;BME280;65232;48.358;2.122;2023-07-02T01:44:19;100625.44;;;15.31;74.82
76404;BME280;65232;48.358;2.122;2023-07-02T01:44:46;100627.63;;;15.28;74.75
76404;BME280;65232;48.358;2.122;2023-07-02T01:45:12;100627.97;;;15.33;74.70
76404;BME280;65232;48.358;2.122;2023-07-02T01:45:38;100632.66;;;15.31;74.72
76404;BME280;65232;48.358;2.122;2023-07-02T01:46:04;100632.66;;;15.31;74.92
76404;BME280;65232;48.358;2.122;2023-07-02T01:46:29;100630.44;;;15.18;74.94
76404;BME280;65232;48.358;2.122;2023-07-02T01:46:54;100631.41;;;15.09;75.37
76404;BME280;65232;48.358;2.122;2023-07-02T01:47:22;100631.72;;;15.06;75.57
76404;BME280;65232;48.358;2.122;2023-07-02T01:47:48;100630.72;;;15.07;75.75
76404;BME280;65232;48.358;2.122;2023-07-02T01:48:13;100637.63;;;15.09;75.84
76404;BME280;65232;48.358;2.122;2023-07-02T01:48:40;100637.31;;;15.12;75.62
76404;BME280;65232;48.358;2.122;2023-07-02T01:49:05;100635.28;;;15.14;75.30
76404;BME280;65232;48.358;2.122;2023-07-02T01:49:31;100628.28;;;15.30;75.14
76404;BME280;65232;48.358;2.122;2023-07-02T01:49:57;100623.72;;;15.22;75.17
76404;BME280;65232;48.358;2.122;2023-07-02T01:50:24;100633.66;;;15.22;75.17
76404;BME280;65232;48.358;2.122;2023-07-02T01:50:50;100633.78;;;15.12;75.69
76404;BME280;65232;48.358;2.122;2023-07-02T01:51:16;100636.47;;;15.12;75.44
76404;BME280;65232;48.358;2.122;2023-07-02T01:51:45;100633.63;;;15.13;75.27
76404;BME280;65232;48.358;2.122;2023-07-02T01:52:13;100628.94;;;15.24;74.86
76404;BME280;65232;48.358;2.122;2023-07-02T01:52:39;100629.44;;;15.19;75.26
76404;BME280;65232;48.358;2.122;2023-07-02T01:53:04;100623.03;;;15.20;75.11
76404;BME280;65232;48.358;2.122;2023-07-02T01:53:31;100633.66;;;15.22;74.92
76404;BME280;65232;48.358;2.122;2023-07-02T01:53:56;100633.13;;;15.18;75.14
76404;BME280;65232;48.358;2.122;2023-07-02T01:54:23;100632.97;;;15.20;74.92
76404;BME280;65232;48.358;2.122;2023-07-02T01:54:49;100632.78;;;15.13;75.70
76404;BME280;65232;48.358;2.122;2023-07-02T01:55:15;100639.84;;;15.14;75.65
76404;BME280;65232;48.358;2.122;2023-07-02T01:55:42;100635.81;;;15.18;75.57
76404;BME280;65232;48.358;2.122;2023-07-02T01:56:08;100633.44;;;15.15;75.46
76404;BME280;65232;48.358;2.122;2023-07-02T01:56:34;100631.75;;;15.14;75.29
76404;BME280;65232;48.358;2.122;2023-07-02T01:56:59;100636.97;;;15.15;75.26
76404;BME280;65232;48.358;2.122;2023-07-02T01:57:25;100634.19;;;15.25;75.11
76404;BME280;65232;48.358;2.122;2023-07-02T01:57:51;100637.50;;;15.19;75.08
76404;BME280;65232;48.358;2.122;2023-07-02T01:58:16;100636.66;;;15.18;75.18
76404;BME280;65232;48.358;2.122;2023-07-02T01:58:42;100645.06;;;15.15;75.07
76404;BME280;65232;48.358;2.122;2023-07-02T01:59:07;100639.50;;;15.09;75.48
76404;BME280;65232;48.358;2.122;2023-07-02T01:59:32;100643.91;;;15.18;75.26
76404;BME280;65232;48.358;2.122;2023-07-02T01:59:58;100633.44;;;15.15;75.41
76404;BME280;65232;48.358;2.122;2023-07-02T02:00:24;100632.41;;;15.08;75.67
76404;BME280;65232;48.358;2.122;2023-07-02T02:00:50;100631.19;;;15.02;75.85
76404;BME280;65232;48.358;2.122;2023-07-02T02:01:15;100630.66;;;14.99;75.91
76404;BME280;65232;48.358;2.122;2023-07-02T02:01:41;100632.03;;;15.03;76.05
76404;BME280;65232;48.358;2.122;2023-07-02T02:02:07;100638.13;;;15.05;75.56
76404;BME280;65232;48.358;2.122;2023-07-02T02:02:35;100631.78;;;14.88;76.51
76404;BME280;65232;48.358;2.122;2023-07-02T02:03:00;100632.28;;;14.84;76.95
76404;BME280;65232;48.358;2.122;2023-07-02T02:03:26;100635.59;;;14.77;77.59
76404;BME280;65232;48.358;2.122;2023-07-02T02:03:52;100632.44;;;14.82;77.34
76404;BME280;65232;48.358;2.122;2023-07-02T02:04:17;100640.88;;;14.87;77.05
76404;BME280;65232;48.358;2.122;2023-07-02T02:04:43;100637.00;;;14.90;76.85
76404;BME280;65232;48.358;2.122;2023-07-02T02:05:09;100643.41;;;14.89;76.80
76404;BME280;65232;48.358;2.122;2023-07-02T02:05:34;100634.31;;;14.90;76.84
76404;BME280;65232;48.358;2.122;2023-07-02T02:06:00;100636.47;;;14.86;77.05
76404;BME280;65232;48.358;2.122;2023-07-02T02:06:26;100638.38;;;14.94;76.74
76404;BME280;65232;48.358;2.122;2023-07-02T02:06:51;100637.53;;;14.93;76.66
76404;BME280;65232;48.358;2.122;2023-07-02T02:07:17;100645.94;;;14.90;76.49
76404;BME280;65232;48.358;2.122;2023-07-02T02:07:43;100644.06;;;14.82;77.01
76404;BME280;65232;48.358;2.122;2023-07-02T02:08:08;100643.72;;;14.86;77.05
76404;BME280;65232;48.358;2.122;2023-07-02T02:08:34;100639.84;;;14.88;76.75
76404;BME280;65232;48.358;2.122;2023-07-02T02:09:00;100640.34;;;14.84;76.96
76404;BME280;65232;48.358;2.122;2023-07-02T02:09:25;100644.56;;;14.86;76.94
76404;BME280;65232;48.358;2.122;2023-07-02T02:09:53;100634.63;;;14.87;76.80
76404;BME280;65232;48.358;2.122;2023-07-02T02:10:19;100641.00;;;14.86;76.84
76404;BME280;65232;48.358;2.122;2023-07-02T02:10:44;100639.84;;;14.88;76.72
76404;BME280;65232;48.358;2.122;2023-07-02T02:11:11;100643.41;;;14.89;76.41
76404;BME280;65232;48.358;2.122;2023-07-02T02:11:41;100644.09;;;14.91;76.67
76404;BME280;65232;48.358;2.122;2023-07-02T02:12:07;100642.78;;;14.95;76.63
76404;BME280;65232;48.358;2.122;2023-07-02T02:12:33;100647.31;;;14.94;76.59
76404;BME280;65232;48.358;2.122;2023-07-02T02:12:58;100640.28;;;15.01;76.19
76404;BME280;65232;48.358;2.122;2023-07-02T02:13:24;100645.50;;;15.03;76.04
76404;BME280;65232;48.358;2.122;2023-07-02T02:13:49;100640.13;;;15.03;75.96
76404;BME280;65232;48.358;2.122;2023-07-02T02:14:15;100638.16;;;14.87;76.44
76404;BME280;65232;48.358;2.122;2023-07-02T02:14:41;100642.47;;;14.98;76.20
76404;BME280;65232;48.358;2.122;2023-07-02T02:15:07;100635.38;;;14.97;76.19
76404;BME280;65232;48.358;2.122;2023-07-02T02:15:32;100634.78;;;14.85;76.98
76404;BME280;65232;48.358;2.122;2023-07-02T02:15:58;100636.44;;;14.78;77.27
76404;BME280;65232;48.358;2.122;2023-07-02T02:16:23;100640.91;;;14.69;77.93
76404;BME280;65232;48.358;2.122;2023-07-02T02:16:49;100636.13;;;14.81;77.62
76404;BME280;65232;48.358;2.122;2023-07-02T02:17:15;100630.66;;;14.73;77.45
76404;BME280;65232;48.358;2.122;2023-07-02T02:17:40;100635.50;;;14.69;78.17
76404;BME280;65232;48.358;2.122;2023-07-02T02:18:06;100632.81;;;14.69;78.11
76404;BME280;65232;48.358;2.122;2023-07-02T02:18:32;100638.84;;;14.63;78.28
76404;BME280;65232;48.358;2.122;2023-07-02T02:18:57;100641.56;;;14.63;78.45
76404;BME280;65232;48.358;2.122;2023-07-02T02:19:23;100635.69;;;14.68;78.15